createdAt,value
2018-05-11T00:00:36.519Z,45.28
2018-05-11T00:01:36.524Z,45.48
2018-05-11T00:02:36.575Z,45.09
2018-05-11T00:03:36.941Z,45.36
2018-05-11T00:04:36.672Z,45.38
2018-05-11T00:05:36.649Z,45.57
2018-05-11T00:06:36.681Z,45.48
2018-05-11T00:07:36.712Z,45.18
2018-05-11T00:08:36.744Z,45.75
2018-05-11T00:09:36.835Z,45.55
2018-05-11T00:10:37.106Z,45.75
2018-05-11T00:11:36.843Z,45.57
2018-05-11T00:12:36.872Z,45.65
2018-05-11T00:13:36.904Z,45.65
2018-05-11T00:14:36.935Z,45.76
2018-05-11T00:15:36.963Z,45.84
2018-05-11T00:16:37.298Z,45.55
2018-05-11T00:17:37.035Z,45.36
2018-05-11T00:18:37.159Z,45.55
2018-05-11T00:19:37.102Z,46.13
2018-05-11T00:20:37.119Z,45.75
2018-05-11T00:21:37.151Z,45.65
2018-05-11T00:22:37.486Z,45.75
2018-05-11T00:23:37.286Z,45.94
2018-05-11T00:24:37.250Z,45.75
2018-05-11T00:25:37.276Z,45.84
2018-05-11T00:26:37.329Z,45.84
2018-05-11T00:27:37.340Z,45.76
2018-05-11T00:28:37.675Z,45.84
2018-05-11T00:29:37.405Z,46.03
2018-05-11T00:30:37.495Z,45.75
2018-05-11T00:31:37.523Z,45.84
2018-05-11T00:32:37.504Z,45.94
2018-05-11T00:33:37.536Z,45.84
2018-05-11T00:34:37.860Z,45.84
2018-05-11T00:35:37.602Z,45.86
2018-05-11T00:36:37.649Z,45.94
2018-05-11T00:37:37.663Z,45.84
2018-05-11T00:38:37.840Z,46.13
2018-05-11T00:39:37.715Z,46.23
2018-05-11T00:40:37.751Z,46.13
2018-05-11T00:41:38.103Z,46.23
2018-05-11T00:42:37.820Z,46.33
2018-05-11T00:43:37.853Z,46.33
2018-05-11T00:44:37.886Z,45.94
2018-05-11T00:45:37.923Z,46.23
2018-05-11T00:46:37.953Z,46.42
2018-05-11T00:47:38.314Z,46.13
2018-05-11T00:48:38.017Z,46.23
2018-05-11T00:49:38.141Z,45.84
2018-05-11T00:50:38.060Z,46.13
2018-05-11T00:51:38.093Z,46.23
2018-05-11T00:52:38.123Z,46.23
2018-05-11T00:53:38.471Z,46.23
2018-05-11T00:54:38.187Z,46.23
2018-05-11T00:55:38.346Z,46.23
2018-05-11T00:56:38.259Z,46.13
2018-05-11T00:57:38.288Z,46.13
2018-05-11T00:58:38.321Z,46.33
2018-05-11T00:59:38.651Z,46.23
2018-05-11T01:00:38.382Z,45.94
2018-05-11T01:01:38.432Z,46.42
2018-05-11T01:02:38.450Z,46.23
2018-05-11T01:03:38.545Z,46.42
2018-05-11T01:04:38.500Z,46.13
2018-05-11T01:05:38.840Z,46.61
2018-05-11T01:06:38.859Z,46.61
2018-05-11T01:07:38.597Z,46.33
2018-05-11T01:08:38.636Z,46.51
2018-05-11T01:09:38.671Z,46.33
2018-05-11T01:10:38.686Z,46.42
2018-05-11T01:11:39.017Z,46.81
2018-05-11T01:12:38.812Z,46.42
2018-05-11T01:13:38.784Z,47.00
2018-05-11T01:14:38.863Z,46.90
2018-05-11T01:15:38.842Z,46.51
2018-05-11T01:16:38.875Z,46.61
2018-05-11T01:17:39.204Z,46.90
2018-05-11T01:18:38.960Z,47.19
2018-05-11T01:19:38.967Z,46.90
2018-05-11T01:20:39.009Z,47.19
2018-05-11T01:21:39.033Z,47.19
2018-05-11T01:22:39.072Z,47.00
2018-05-11T01:23:39.397Z,47.00
2018-05-11T01:24:39.140Z,47.19
2018-05-11T01:25:39.156Z,47.19
2018-05-11T01:26:39.210Z,46.61
2018-05-11T01:27:39.246Z,47.19
2018-05-11T01:28:39.594Z,46.97
2018-05-11T01:29:39.645Z,47.17
2018-05-11T01:30:39.324Z,47.17
2018-05-11T01:31:39.347Z,47.17
2018-05-11T01:32:39.411Z,47.17
2018-05-11T01:33:39.424Z,47.17
2018-05-11T01:34:39.647Z,46.69
2018-05-11T01:35:39.776Z,46.97
2018-05-11T01:36:39.496Z,47.07
2018-05-11T01:37:39.532Z,46.88
2018-05-11T01:38:39.570Z,47.17
2018-05-11T01:39:39.595Z,47.07
2018-05-11T01:40:39.777Z,46.59
2018-05-11T01:41:39.953Z,46.88
2018-05-11T01:42:39.682Z,46.88
2018-05-11T01:43:39.720Z,46.88
2018-05-11T01:44:39.743Z,46.97
2018-05-11T01:45:39.774Z,47.17
2018-05-11T01:46:39.808Z,47.17
2018-05-11T01:47:40.146Z,47.45
2018-05-11T01:48:39.884Z,47.17
2018-05-11T01:49:41.921Z,46.78
2018-05-11T01:50:39.986Z,47.07
2018-05-11T01:51:39.988Z,46.78
2018-05-11T01:52:40.001Z,46.88
2018-05-11T01:53:40.323Z,46.78
2018-05-11T01:54:40.052Z,46.97
2018-05-11T01:55:40.195Z,46.88
2018-05-11T01:56:40.120Z,47.36
2018-05-11T01:57:40.176Z,47.45
2018-05-11T01:58:40.217Z,46.88
2018-05-11T01:59:40.623Z,46.88
2018-05-11T02:00:40.254Z,47.55
2018-05-11T02:01:40.277Z,47.27
2018-05-11T02:02:40.304Z,46.88
2018-05-11T02:03:40.458Z,46.88
2018-05-11T02:04:40.368Z,46.88
2018-05-11T02:05:40.963Z,47.17
2018-05-11T02:06:40.467Z,46.88
2018-05-11T02:07:40.462Z,47.17
2018-05-11T02:08:40.544Z,47.27
2018-05-11T02:09:40.590Z,47.07
2018-05-11T02:10:40.557Z,47.17
2018-05-11T02:11:40.982Z,47.27
2018-05-11T02:12:40.621Z,47.17
2018-05-11T02:13:40.646Z,47.27
2018-05-11T02:14:40.697Z,47.27
2018-05-11T02:15:40.807Z,47.17
2018-05-11T02:16:40.743Z,47.17
2018-05-11T02:17:41.068Z,47.17
2018-05-11T02:18:40.803Z,47.17
2018-05-11T02:19:40.828Z,47.27
2018-05-11T02:20:40.871Z,47.17
2018-05-11T02:21:40.890Z,47.17
2018-05-11T02:22:40.927Z,47.27
2018-05-11T02:23:40.952Z,47.55
2018-05-11T02:24:41.336Z,47.45
2018-05-11T02:25:41.019Z,47.45
2018-05-11T02:26:41.059Z,47.55
2018-05-11T02:27:41.095Z,47.55
2018-05-11T02:28:41.115Z,47.45
2018-05-11T02:29:41.150Z,47.44
2018-05-11T02:30:41.174Z,47.55
2018-05-11T02:31:41.550Z,47.55
2018-05-11T02:32:41.231Z,47.55
2018-05-11T02:33:41.273Z,47.36
2018-05-11T02:34:41.298Z,47.45
2018-05-11T02:35:41.326Z,47.55
2018-05-11T02:36:41.408Z,47.53
2018-05-11T02:37:41.398Z,47.45
2018-05-11T02:38:41.723Z,47.44
2018-05-11T02:39:41.453Z,47.55
2018-05-11T02:40:41.486Z,47.53
2018-05-11T02:41:41.515Z,47.55
2018-05-11T02:42:41.592Z,47.44
2018-05-11T02:43:41.571Z,47.53
2018-05-11T02:44:41.606Z,47.44
2018-05-11T02:45:41.932Z,47.82
2018-05-11T02:46:41.664Z,48.01
2018-05-11T02:47:41.692Z,47.82
2018-05-11T02:48:41.779Z,47.92
2018-05-11T02:49:41.759Z,47.72
2018-05-11T02:50:41.834Z,47.72
2018-05-11T02:51:42.127Z,47.53
2018-05-11T02:52:41.850Z,47.82
2018-05-11T02:53:42.081Z,47.82
2018-05-11T02:54:41.912Z,47.63
2018-05-11T02:55:41.945Z,47.53
2018-05-11T02:56:41.971Z,47.75
2018-05-11T02:57:42.305Z,48.01
2018-05-11T02:58:42.038Z,47.72
2018-05-11T02:59:42.095Z,47.72
2018-05-11T03:00:42.102Z,47.65
2018-05-11T03:01:42.138Z,47.72
2018-05-11T03:02:42.163Z,47.72
2018-05-11T03:03:42.502Z,47.63
2018-05-11T03:04:42.224Z,47.72
2018-05-11T03:05:42.492Z,47.72
2018-05-11T03:06:42.299Z,47.63
2018-05-11T03:07:42.334Z,47.53
2018-05-11T03:08:42.341Z,47.53
2018-05-11T03:09:42.377Z,47.55
2018-05-11T03:10:42.727Z,47.72
2018-05-11T03:11:42.437Z,47.53
2018-05-11T03:12:42.474Z,47.72
2018-05-11T03:13:42.498Z,48.01
2018-05-11T03:14:42.525Z,48.01
2018-05-11T03:15:42.769Z,48.21
2018-05-11T03:16:42.593Z,48.30
2018-05-11T03:17:42.921Z,48.40
2018-05-11T03:18:42.811Z,48.11
2018-05-11T03:19:42.699Z,48.69
2018-05-11T03:20:42.833Z,48.11
2018-05-11T03:21:42.747Z,48.40
2018-05-11T03:22:42.780Z,48.01
2018-05-11T03:23:43.114Z,48.01
2018-05-11T03:24:42.875Z,48.40
2018-05-11T03:25:42.864Z,48.21
2018-05-11T03:26:42.995Z,48.21
2018-05-11T03:27:42.928Z,48.49
2018-05-11T03:28:42.956Z,48.69
2018-05-11T03:29:43.300Z,48.30
2018-05-11T03:30:43.021Z,48.49
2018-05-11T03:31:43.056Z,48.30
2018-05-11T03:32:43.085Z,48.40
2018-05-11T03:33:43.114Z,48.49
2018-05-11T03:34:43.141Z,48.30
2018-05-11T03:35:43.514Z,48.40
2018-05-11T03:36:43.208Z,48.40
2018-05-11T03:37:43.432Z,48.30
2018-05-11T03:38:43.267Z,48.30
2018-05-11T03:39:43.330Z,48.40
2018-05-11T03:40:43.337Z,48.11
2018-05-11T03:41:43.662Z,48.30
2018-05-11T03:42:43.386Z,48.30
2018-05-11T03:43:43.419Z,48.49
2018-05-11T03:44:43.454Z,48.21
2018-05-11T03:45:43.605Z,48.69
2018-05-11T03:46:43.522Z,48.21
2018-05-11T03:47:43.849Z,48.11
2018-05-11T03:48:43.668Z,48.11
2018-05-11T03:49:43.853Z,48.11
2018-05-11T03:50:43.675Z,48.40
2018-05-11T03:51:43.666Z,48.11
2018-05-11T03:52:43.725Z,48.59
2018-05-11T03:53:44.059Z,48.40
2018-05-11T03:54:43.769Z,48.30
2018-05-11T03:55:43.856Z,47.92
2018-05-11T03:56:43.842Z,48.01
2018-05-11T03:57:43.862Z,48.01
2018-05-11T03:58:43.922Z,48.11
2018-05-11T03:59:43.963Z,48.01
2018-05-11T04:00:44.247Z,48.11
2018-05-11T04:01:43.975Z,47.70
2018-05-11T04:02:44.006Z,47.53
2018-05-11T04:03:44.048Z,48.21
2018-05-11T04:04:44.171Z,47.99
2018-05-11T04:05:44.137Z,48.38
2018-05-11T04:06:44.434Z,48.57
2018-05-11T04:07:44.188Z,48.57
2018-05-11T04:08:44.211Z,48.57
2018-05-11T04:09:44.268Z,48.66
2018-05-11T04:10:44.254Z,48.57
2018-05-11T04:11:44.279Z,48.47
2018-05-11T04:12:44.615Z,48.18
2018-05-11T04:13:44.354Z,48.08
2018-05-11T04:14:44.378Z,47.99
2018-05-11T04:15:44.603Z,48.28
2018-05-11T04:16:44.463Z,48.66
2018-05-11T04:17:44.463Z,48.57
2018-05-11T04:18:44.797Z,48.66
2018-05-11T04:19:44.526Z,48.66
2018-05-11T04:20:44.641Z,48.57
2018-05-11T04:21:44.709Z,48.08
2018-05-11T04:22:44.659Z,47.89
2018-05-11T04:23:44.651Z,47.89
2018-05-11T04:24:44.980Z,48.18
2018-05-11T04:25:44.711Z,48.18
2018-05-11T04:26:44.746Z,47.89
2018-05-11T04:27:44.824Z,48.08
2018-05-11T04:28:44.810Z,48.08
2018-05-11T04:29:44.897Z,47.89
2018-05-11T04:30:45.226Z,47.70
2018-05-11T04:31:44.925Z,48.08
2018-05-11T04:32:44.940Z,48.18
2018-05-11T04:33:44.952Z,47.89
2018-05-11T04:34:44.997Z,47.99
2018-05-11T04:35:45.096Z,48.08
2018-05-11T04:36:45.354Z,48.08
2018-05-11T04:37:45.077Z,48.08
2018-05-11T04:38:45.109Z,48.08
2018-05-11T04:39:45.169Z,48.57
2018-05-11T04:40:45.171Z,48.40
2018-05-11T04:41:45.232Z,48.28
2018-05-11T04:42:45.536Z,48.38
2018-05-11T04:43:45.261Z,48.38
2018-05-11T04:44:45.324Z,48.28
2018-05-11T04:45:45.330Z,48.38
2018-05-11T04:46:45.354Z,48.57
2018-05-11T04:47:45.411Z,48.38
2018-05-11T04:48:45.734Z,48.47
2018-05-11T04:49:45.496Z,48.38
2018-05-11T04:50:45.474Z,48.38
2018-05-11T04:51:45.558Z,48.38
2018-05-11T04:52:45.548Z,48.28
2018-05-11T04:53:45.567Z,48.28
2018-05-11T04:54:45.974Z,48.47
2018-05-11T04:55:45.884Z,48.08
2018-05-11T04:56:45.738Z,48.21
2018-05-11T04:57:45.719Z,48.21
2018-05-11T04:58:45.782Z,47.99
2018-05-11T04:59:45.764Z,48.11
2018-05-11T05:00:46.080Z,47.89
2018-05-11T05:01:45.865Z,48.66
2018-05-11T05:02:46.124Z,48.40
2018-05-11T05:03:45.884Z,48.49
2018-05-11T05:04:46.001Z,48.08
2018-05-11T05:05:45.938Z,48.11
2018-05-11T05:06:46.268Z,48.21
2018-05-11T05:07:46.057Z,48.01
2018-05-11T05:08:46.027Z,48.01
2018-05-11T05:09:46.259Z,47.80
2018-05-11T05:10:46.185Z,48.01
2018-05-11T05:11:46.147Z,47.99
2018-05-11T05:12:46.508Z,48.11
2018-05-11T05:13:46.208Z,48.01
2018-05-11T05:14:46.362Z,48.01
2018-05-11T05:15:46.300Z,48.01
2018-05-11T05:16:46.277Z,47.92
2018-05-11T05:17:46.328Z,48.01
2018-05-11T05:18:46.647Z,48.01
2018-05-11T05:19:46.529Z,48.40
2018-05-11T05:20:46.465Z,48.21
2018-05-11T05:21:46.468Z,48.59
2018-05-11T05:22:46.468Z,48.40
2018-05-11T05:23:46.493Z,48.11
2018-05-11T05:24:46.818Z,48.30
2018-05-11T05:25:46.549Z,48.69
2018-05-11T05:26:46.605Z,48.30
2018-05-11T05:27:46.763Z,48.11
2018-05-11T05:28:46.646Z,48.01
2018-05-11T05:29:46.873Z,48.01
2018-05-11T05:30:46.708Z,47.92
2018-05-11T05:31:47.035Z,48.01
2018-05-11T05:32:46.819Z,47.92
2018-05-11T05:33:46.856Z,47.92
2018-05-11T05:34:46.875Z,48.01
2018-05-11T05:35:46.867Z,48.01
2018-05-11T05:36:46.889Z,48.11
2018-05-11T05:37:47.219Z,48.21
2018-05-11T05:38:46.948Z,48.01
2018-05-11T05:39:47.005Z,48.01
2018-05-11T05:40:47.311Z,48.21
2018-05-11T05:41:47.043Z,47.82
2018-05-11T05:42:47.066Z,47.44
2018-05-11T05:43:47.399Z,48.01
2018-05-11T05:44:47.133Z,48.01
2018-05-11T05:45:47.198Z,48.69
2018-05-11T05:46:47.195Z,47.92
2018-05-11T05:47:47.226Z,47.92
2018-05-11T05:48:47.253Z,47.94
2018-05-11T05:49:47.641Z,48.01
2018-05-11T05:50:47.317Z,48.01
2018-05-11T05:51:47.403Z,47.44
2018-05-11T05:52:47.382Z,48.11
2018-05-11T05:53:47.409Z,48.01
2018-05-11T05:54:47.458Z,47.72
2018-05-11T05:55:47.779Z,48.01
2018-05-11T05:56:47.559Z,47.53
2018-05-11T05:57:47.532Z,47.53
2018-05-11T05:58:47.586Z,47.53
2018-05-11T05:59:47.595Z,47.75
2018-05-11T06:00:47.671Z,47.53
2018-05-11T06:01:47.978Z,48.01
2018-05-11T06:02:47.694Z,48.61
2018-05-11T06:03:47.728Z,48.61
2018-05-11T06:04:47.756Z,48.81
2018-05-11T06:05:47.783Z,48.81
2018-05-11T06:06:47.826Z,48.52
2018-05-11T06:07:48.145Z,48.71
2018-05-11T06:08:47.877Z,48.71
2018-05-11T06:09:47.910Z,48.42
2018-05-11T06:10:47.993Z,48.52
2018-05-11T06:11:47.974Z,48.81
2018-05-11T06:12:47.996Z,48.42
2018-05-11T06:13:48.341Z,48.23
2018-05-11T06:14:48.059Z,48.06
2018-05-11T06:15:48.090Z,48.06
2018-05-11T06:16:48.122Z,48.16
2018-05-11T06:17:48.256Z,47.87
2018-05-11T06:18:48.186Z,47.77
2018-05-11T06:19:48.516Z,47.67
2018-05-11T06:20:48.244Z,47.67
2018-05-11T06:21:48.276Z,47.87
2018-05-11T06:22:48.335Z,47.96
2018-05-11T06:23:48.441Z,47.96
2018-05-11T06:24:48.429Z,47.96
2018-05-11T06:25:48.703Z,47.77
2018-05-11T06:26:48.437Z,47.67
2018-05-11T06:27:48.536Z,47.58
2018-05-11T06:28:48.962Z,47.67
2018-05-11T06:29:48.684Z,47.96
2018-05-11T06:30:48.566Z,47.96
2018-05-11T06:31:48.896Z,47.50
2018-05-11T06:32:48.621Z,47.48
2018-05-11T06:33:48.651Z,47.60
2018-05-11T06:34:48.685Z,47.77
2018-05-11T06:35:48.714Z,48.06
2018-05-11T06:36:48.753Z,48.64
2018-05-11T06:37:49.077Z,48.66
2018-05-11T06:38:48.821Z,48.44
2018-05-11T06:39:48.841Z,48.64
2018-05-11T06:40:48.879Z,48.64
2018-05-11T06:41:49.069Z,48.86
2018-05-11T06:42:48.941Z,48.76
2018-05-11T06:43:49.270Z,48.95
2018-05-11T06:44:49.014Z,48.66
2018-05-11T06:45:49.027Z,48.47
2018-05-11T06:46:49.244Z,48.66
2018-05-11T06:47:49.149Z,48.76
2018-05-11T06:48:49.135Z,48.57
2018-05-11T06:49:49.457Z,48.66
2018-05-11T06:50:49.218Z,48.37
2018-05-11T06:51:49.225Z,48.57
2018-05-11T06:52:49.265Z,48.76
2018-05-11T06:53:49.284Z,48.28
2018-05-11T06:54:49.318Z,48.08
2018-05-11T06:55:49.649Z,48.18
2018-05-11T06:56:49.384Z,48.08
2018-05-11T06:57:49.417Z,47.70
2018-05-11T06:58:49.555Z,47.70
2018-05-11T06:59:49.482Z,47.60
2018-05-11T07:00:49.518Z,47.80
2018-05-11T07:01:49.842Z,47.80
2018-05-11T07:02:49.574Z,47.60
2018-05-11T07:03:49.601Z,47.70
2018-05-11T07:04:49.687Z,47.89
2018-05-11T07:05:49.673Z,47.81
2018-05-11T07:06:49.743Z,47.91
2018-05-11T07:07:50.152Z,47.99
2018-05-11T07:08:49.774Z,47.43
2018-05-11T07:09:49.794Z,47.33
2018-05-11T07:10:49.852Z,47.50
2018-05-11T07:11:49.868Z,47.53
2018-05-11T07:12:49.993Z,47.63
2018-05-11T07:13:50.232Z,47.63
2018-05-11T07:14:49.954Z,47.53
2018-05-11T07:15:49.990Z,47.63
2018-05-11T07:16:50.013Z,47.53
2018-05-11T07:17:50.053Z,47.53
2018-05-11T07:18:50.180Z,47.53
2018-05-11T07:19:50.417Z,47.53
2018-05-11T07:20:50.144Z,47.43
2018-05-11T07:21:50.226Z,47.33
2018-05-11T07:22:50.227Z,47.14
2018-05-11T07:23:50.239Z,47.24
2018-05-11T07:24:50.269Z,47.43
2018-05-11T07:25:50.764Z,47.24
2018-05-11T07:26:50.343Z,47.24
2018-05-11T07:27:50.395Z,46.85
2018-05-11T07:28:50.396Z,47.24
2018-05-11T07:29:50.520Z,47.53
2018-05-11T07:30:50.465Z,47.05
2018-05-11T07:31:50.844Z,47.24
2018-05-11T07:32:50.545Z,47.05
2018-05-11T07:33:50.553Z,47.24
2018-05-11T07:34:50.626Z,47.14
2018-05-11T07:35:50.632Z,47.05
2018-05-11T07:36:50.646Z,46.66
2018-05-11T07:37:51.065Z,46.66
2018-05-11T07:38:50.717Z,46.56
2018-05-11T07:39:50.752Z,46.97
2018-05-11T07:40:50.783Z,46.85
2018-05-11T07:41:50.918Z,46.85
2018-05-11T07:42:50.864Z,46.68
2018-05-11T07:43:51.211Z,46.88
2018-05-11T07:44:50.911Z,46.39
2018-05-11T07:45:50.945Z,46.68
2018-05-11T07:46:50.976Z,46.39
2018-05-11T07:47:51.018Z,46.00
2018-05-11T07:48:51.051Z,46.20
2018-05-11T07:49:51.424Z,46.00
2018-05-11T07:50:51.097Z,46.00
2018-05-11T07:51:51.146Z,46.30
2018-05-11T07:52:51.170Z,46.30
2018-05-11T07:53:51.213Z,46.30
2018-05-11T07:54:51.241Z,46.20
2018-05-11T07:55:51.592Z,46.20
2018-05-11T07:56:51.362Z,45.91
2018-05-11T07:57:51.337Z,46.00
2018-05-11T07:58:51.365Z,46.10
2018-05-11T07:59:51.405Z,45.83
2018-05-11T08:00:51.449Z,45.62
2018-05-11T08:01:51.759Z,45.54
2018-05-11T08:02:51.521Z,45.83
2018-05-11T08:03:51.736Z,45.64
2018-05-11T08:04:51.565Z,46.03
2018-05-11T08:05:51.677Z,46.00
2018-05-11T08:06:51.631Z,45.74
2018-05-11T08:07:51.955Z,45.45
2018-05-11T08:08:51.686Z,45.06
2018-05-11T08:09:51.751Z,45.45
2018-05-11T08:10:51.754Z,45.35
2018-05-11T08:11:51.789Z,45.16
2018-05-11T08:12:51.817Z,45.35
2018-05-11T08:13:52.168Z,45.35
2018-05-11T08:14:51.887Z,45.25
2018-05-11T08:15:51.932Z,45.25
2018-05-11T08:16:52.000Z,45.16
2018-05-11T08:17:51.980Z,44.96
2018-05-11T08:18:52.021Z,45.06
2018-05-11T08:19:52.372Z,44.96
2018-05-11T08:20:52.082Z,45.06
2018-05-11T08:21:52.171Z,44.96
2018-05-11T08:22:52.148Z,45.16
2018-05-11T08:23:52.189Z,44.96
2018-05-11T08:24:52.258Z,44.87
2018-05-11T08:25:52.571Z,44.96
2018-05-11T08:26:52.463Z,44.96
2018-05-11T08:27:52.308Z,44.77
2018-05-11T08:28:52.340Z,44.67
2018-05-11T08:29:52.373Z,44.67
2018-05-11T08:30:52.405Z,44.57
2018-05-11T08:31:52.741Z,44.77
2018-05-11T08:32:52.474Z,44.77
2018-05-11T08:33:52.505Z,44.67
2018-05-11T08:34:52.537Z,44.29
2018-05-11T08:35:52.643Z,44.57
2018-05-11T08:36:52.707Z,44.77
2018-05-11T08:37:52.939Z,44.67
2018-05-11T08:38:52.694Z,44.67
2018-05-11T08:39:52.705Z,44.77
2018-05-11T08:40:52.740Z,44.67
2018-05-11T08:41:52.770Z,44.60
2018-05-11T08:42:52.983Z,44.60
2018-05-11T08:43:53.137Z,44.57
2018-05-11T08:44:52.875Z,44.40
2018-05-11T08:45:52.900Z,44.79
2018-05-11T08:46:52.948Z,44.29
2018-05-11T08:47:53.021Z,44.50
2018-05-11T08:48:53.002Z,44.29
2018-05-11T08:49:53.332Z,44.40
2018-05-11T08:50:53.068Z,44.21
2018-05-11T08:51:53.114Z,44.19
2018-05-11T08:52:53.209Z,44.29
2018-05-11T08:53:53.183Z,44.09
2018-05-11T08:54:53.210Z,44.31
2018-05-11T08:55:53.557Z,44.12
2018-05-11T08:56:53.270Z,44.21
2018-05-11T08:57:53.548Z,44.21
2018-05-11T08:58:53.388Z,44.21
2018-05-11T08:59:53.453Z,44.31
2018-05-11T09:00:53.406Z,44.21
2018-05-11T09:01:53.743Z,44.31
2018-05-11T09:02:53.551Z,44.21
2018-05-11T09:03:53.506Z,44.21
2018-05-11T09:04:53.537Z,44.21
2018-05-11T09:05:53.570Z,44.31
2018-05-11T09:06:53.599Z,44.21
2018-05-11T09:07:53.926Z,44.40
2018-05-11T09:08:53.714Z,44.40
2018-05-11T09:09:53.701Z,44.40
2018-05-11T09:10:53.734Z,44.21
2018-05-11T09:11:53.758Z,44.50
2018-05-11T09:12:53.895Z,44.40
2018-05-11T09:13:54.132Z,44.40
2018-05-11T09:14:53.867Z,44.31
2018-05-11T09:15:53.901Z,44.40
2018-05-11T09:16:53.929Z,44.40
2018-05-11T09:17:53.973Z,44.40
2018-05-11T09:18:54.020Z,44.40
2018-05-11T09:19:54.326Z,44.50
2018-05-11T09:20:54.056Z,44.50
2018-05-11T09:21:54.095Z,44.50
2018-05-11T09:22:54.479Z,44.50
2018-05-11T09:23:54.161Z,44.50
2018-05-11T09:24:54.444Z,44.50
2018-05-11T09:25:54.523Z,44.50
2018-05-11T09:26:54.255Z,44.50
2018-05-11T09:27:54.294Z,44.31
2018-05-11T09:28:54.327Z,44.31
2018-05-11T09:29:54.361Z,44.21
2018-05-11T09:30:54.389Z,44.12
2018-05-11T09:31:54.745Z,43.92
2018-05-11T09:32:54.719Z,44.02
2018-05-11T09:33:54.562Z,43.92
2018-05-11T09:34:54.527Z,44.02
2018-05-11T09:35:54.559Z,43.92
2018-05-11T09:36:54.641Z,43.82
2018-05-11T09:37:54.937Z,43.92
2018-05-11T09:38:54.955Z,43.82
2018-05-11T09:39:54.722Z,43.92
2018-05-11T09:40:54.726Z,43.73
2018-05-11T09:41:54.774Z,43.82
2018-05-11T09:42:54.794Z,43.92
2018-05-11T09:43:55.228Z,43.82
2018-05-11T09:44:54.857Z,43.63
2018-05-11T09:45:54.897Z,43.73
2018-05-11T09:46:54.922Z,44.31
2018-05-11T09:47:54.959Z,44.21
2018-05-11T09:48:55.147Z,43.92
2018-05-11T09:49:55.327Z,43.73
2018-05-11T09:50:55.066Z,43.63
2018-05-11T09:51:55.091Z,43.92
2018-05-11T09:52:55.133Z,43.63
2018-05-11T09:53:55.207Z,43.73
2018-05-11T09:54:55.290Z,43.92
2018-05-11T09:55:55.754Z,43.54
2018-05-11T09:56:55.268Z,43.63
2018-05-11T09:57:55.288Z,43.75
2018-05-11T09:58:55.329Z,43.65
2018-05-11T09:59:55.550Z,43.73
2018-05-11T10:00:55.514Z,43.63
2018-05-11T10:01:55.723Z,43.75
2018-05-11T10:02:55.453Z,43.75
2018-05-11T10:03:55.489Z,43.65
2018-05-11T10:04:55.573Z,43.63
2018-05-11T10:05:55.553Z,43.75
2018-05-11T10:06:55.589Z,43.44
2018-05-11T10:07:56.014Z,43.37
2018-05-11T10:08:55.678Z,43.55
2018-05-11T10:09:55.791Z,43.55
2018-05-11T10:10:55.739Z,43.34
2018-05-11T10:11:55.757Z,43.46
2018-05-11T10:12:55.814Z,43.17
2018-05-11T10:13:56.203Z,43.44
2018-05-11T10:14:56.040Z,43.34
2018-05-11T10:15:55.904Z,43.34
2018-05-11T10:16:55.926Z,43.46
2018-05-11T10:17:55.966Z,43.27
2018-05-11T10:18:55.994Z,43.17
2018-05-11T10:19:56.425Z,43.17
2018-05-11T10:20:56.163Z,43.37
2018-05-11T10:21:56.103Z,43.27
2018-05-11T10:22:56.117Z,43.46
2018-05-11T10:23:56.162Z,43.17
2018-05-11T10:24:56.228Z,43.55
2018-05-11T10:25:56.523Z,43.55
2018-05-11T10:26:56.261Z,43.55
2018-05-11T10:27:56.292Z,43.46
2018-05-11T10:28:56.407Z,43.46
2018-05-11T10:29:56.516Z,43.46
2018-05-11T10:30:56.384Z,43.65
2018-05-11T10:31:56.722Z,43.07
2018-05-11T10:32:56.459Z,43.75
2018-05-11T10:33:56.494Z,43.27
2018-05-11T10:34:56.524Z,43.17
2018-05-11T10:35:56.651Z,43.27
2018-05-11T10:36:56.584Z,43.17
2018-05-11T10:37:56.917Z,43.17
2018-05-11T10:38:56.675Z,43.17
2018-05-11T10:39:56.797Z,43.17
2018-05-11T10:40:56.716Z,43.17
2018-05-11T10:41:56.804Z,43.17
2018-05-11T10:42:56.781Z,43.07
2018-05-11T10:43:57.124Z,43.07
2018-05-11T10:44:56.863Z,43.07
2018-05-11T10:45:56.990Z,43.07
2018-05-11T10:46:56.923Z,43.17
2018-05-11T10:47:56.951Z,43.37
2018-05-11T10:48:56.989Z,43.27
2018-05-11T10:49:57.405Z,43.27
2018-05-11T10:50:57.114Z,43.27
2018-05-11T10:51:57.087Z,43.27
2018-05-11T10:52:57.117Z,43.27
2018-05-11T10:53:57.155Z,43.27
2018-05-11T10:54:57.202Z,43.37
2018-05-11T10:55:57.625Z,43.37
2018-05-11T10:56:57.256Z,43.27
2018-05-11T10:57:57.294Z,43.27
2018-05-11T10:58:57.336Z,43.17
2018-05-11T10:59:57.355Z,43.46
2018-05-11T11:00:57.393Z,43.37
2018-05-11T11:01:57.776Z,43.17
2018-05-11T11:02:57.471Z,43.46
2018-05-11T11:03:57.520Z,43.55
2018-05-11T11:04:57.532Z,43.46
2018-05-11T11:05:57.589Z,43.55
2018-05-11T11:06:57.601Z,43.46
2018-05-11T11:07:58.016Z,43.55
2018-05-11T11:08:57.674Z,43.55
2018-05-11T11:09:57.692Z,43.55
2018-05-11T11:10:58.029Z,42.88
2018-05-11T11:11:57.759Z,42.78
2018-05-11T11:12:57.793Z,42.88
2018-05-11T11:13:58.290Z,42.88
2018-05-11T11:14:57.861Z,42.78
2018-05-11T11:15:57.894Z,42.97
2018-05-11T11:16:57.925Z,42.88
2018-05-11T11:17:57.968Z,42.90
2018-05-11T11:18:57.990Z,43.07
2018-05-11T11:19:58.592Z,43.09
2018-05-11T11:20:58.061Z,43.07
2018-05-11T11:21:58.194Z,42.78
2018-05-11T11:22:58.127Z,43.09
2018-05-11T11:23:58.163Z,43.09
2018-05-11T11:24:58.193Z,43.09
2018-05-11T11:25:58.634Z,43.09
2018-05-11T11:26:58.262Z,43.19
2018-05-11T11:27:58.292Z,42.88
2018-05-11T11:28:58.339Z,42.90
2018-05-11T11:29:58.354Z,42.90
2018-05-11T11:30:58.399Z,43.19
2018-05-11T11:31:58.781Z,43.09
2018-05-11T11:32:58.462Z,43.19
2018-05-11T11:33:58.488Z,43.19
2018-05-11T11:34:58.525Z,42.71
2018-05-11T11:35:58.560Z,42.71
2018-05-11T11:36:58.645Z,42.71
2018-05-11T11:37:58.927Z,42.71
2018-05-11T11:38:58.657Z,42.71
2018-05-11T11:39:58.696Z,42.71
2018-05-11T11:40:58.752Z,42.71
2018-05-11T11:41:58.766Z,42.51
2018-05-11T11:42:58.807Z,42.61
2018-05-11T11:43:59.130Z,42.71
2018-05-11T11:44:58.876Z,42.80
2018-05-11T11:45:58.906Z,42.51
2018-05-11T11:46:59.084Z,42.51
2018-05-11T11:47:58.971Z,42.41
2018-05-11T11:48:59.015Z,42.61
2018-05-11T11:49:59.337Z,42.71
2018-05-11T11:50:59.118Z,42.71
2018-05-11T11:51:59.119Z,42.51
2018-05-11T11:52:59.165Z,42.51
2018-05-11T11:53:59.219Z,42.41
2018-05-11T11:54:59.212Z,42.41
2018-05-11T11:55:59.649Z,42.51
2018-05-11T11:56:59.277Z,42.61
2018-05-11T11:57:59.302Z,42.32
2018-05-11T11:58:59.337Z,42.61
2018-05-11T11:59:59.399Z,42.41
2018-05-11T12:00:59.406Z,42.41
2018-05-11T12:01:59.843Z,42.41
2018-05-11T12:02:59.484Z,42.41
2018-05-11T12:03:59.507Z,42.41
2018-05-11T12:04:59.539Z,42.41
2018-05-11T12:05:59.575Z,42.51
2018-05-11T12:06:59.600Z,42.51
2018-05-11T12:08:00.015Z,42.51
2018-05-11T12:08:59.694Z,42.71
2018-05-11T12:09:59.715Z,42.61
2018-05-11T12:10:59.739Z,42.41
2018-05-11T12:11:59.774Z,42.13
2018-05-11T12:13:00.022Z,42.32
2018-05-11T12:14:00.160Z,42.61
2018-05-11T12:14:59.963Z,42.51
2018-05-11T12:15:59.911Z,42.22
2018-05-11T12:16:59.991Z,42.22
2018-05-11T12:17:59.981Z,42.41
2018-05-11T12:19:00.011Z,42.22
2018-05-11T12:20:00.369Z,42.32
2018-05-11T12:21:00.084Z,41.93
2018-05-11T12:22:00.117Z,42.13
2018-05-11T12:23:00.245Z,42.03
2018-05-11T12:24:00.182Z,42.22
2018-05-11T12:25:00.217Z,42.03
2018-05-11T12:26:00.642Z,42.22
2018-05-11T12:27:00.329Z,42.32
2018-05-11T12:28:00.322Z,42.32
2018-05-11T12:29:00.352Z,42.32
2018-05-11T12:30:00.391Z,42.51
2018-05-11T12:31:00.420Z,42.22
2018-05-11T12:32:00.754Z,42.41
2018-05-11T12:33:00.640Z,41.86
2018-05-11T12:34:00.526Z,41.93
2018-05-11T12:35:00.648Z,41.95
2018-05-11T12:36:00.645Z,42.05
2018-05-11T12:37:00.674Z,42.14
2018-05-11T12:38:00.961Z,42.14
2018-05-11T12:39:00.699Z,42.14
2018-05-11T12:40:00.728Z,41.95
2018-05-11T12:41:00.843Z,42.14
2018-05-11T12:42:00.895Z,42.14
2018-05-11T12:43:00.830Z,42.34
2018-05-11T12:44:01.169Z,42.34
2018-05-11T12:45:00.911Z,42.05
2018-05-11T12:46:00.932Z,42.05
2018-05-11T12:47:00.965Z,41.76
2018-05-11T12:48:01.154Z,41.76
2018-05-11T12:49:01.030Z,41.76
2018-05-11T12:50:01.363Z,41.56
2018-05-11T12:51:01.099Z,41.66
2018-05-11T12:52:01.134Z,41.66
2018-05-11T12:53:01.174Z,41.76